createdAt,value
2023-02-03T00:01:57.447Z,100.00
2023-02-03T00:04:24.109Z,100.00
2023-02-03T00:06:51.234Z,100.00
2023-02-03T00:09:18.429Z,100.00
2023-02-03T00:11:45.796Z,100.00
2023-02-03T00:14:12.623Z,100.00
2023-02-03T00:16:39.339Z,100.00
2023-02-03T00:19:06.112Z,100.00
2023-02-03T00:21:33.414Z,100.00
2023-02-03T00:24:00.041Z,100.00
2023-02-03T00:26:28.738Z,100.00
2023-02-03T00:28:55.657Z,100.00
2023-02-03T00:31:24.839Z,100.00
2023-02-03T00:33:56.953Z,100.00
2023-02-03T00:36:24.859Z,100.00
2023-02-03T00:38:51.713Z,100.00
2023-02-03T00:41:19.337Z,100.00
2023-02-03T00:43:45.899Z,100.00
2023-02-03T00:46:12.818Z,100.00
2023-02-03T00:48:39.391Z,100.00
2023-02-03T00:51:06.658Z,100.00
2023-02-03T00:53:33.526Z,100.00
2023-02-03T00:56:00.212Z,100.00
2023-02-03T00:58:26.720Z,100.00
2023-02-03T01:00:55.962Z,100.00
2023-02-03T01:03:22.948Z,100.00
2023-02-03T01:05:49.691Z,100.00
2023-02-03T01:08:16.402Z,100.00
2023-02-03T01:10:43.057Z,100.00
2023-02-03T01:13:09.722Z,100.00
2023-02-03T01:15:36.554Z,100.00
2023-02-03T01:18:03.158Z,100.00
2023-02-03T01:20:29.845Z,100.00
2023-02-03T01:22:56.532Z,100.00
2023-02-03T01:25:23.062Z,100.00
2023-02-03T01:27:49.682Z,100.00
2023-02-03T01:30:16.535Z,100.00
2023-02-03T01:32:43.274Z,100.00
2023-02-03T01:35:09.801Z,100.00
2023-02-03T01:37:36.500Z,100.00
2023-02-03T01:40:03.471Z,100.00
2023-02-03T01:42:33.905Z,100.00
2023-02-03T01:45:00.665Z,100.00
2023-02-03T01:47:33.307Z,100.00
2023-02-03T01:50:18.429Z,100.00
2023-02-03T01:52:51.151Z,100.00
2023-02-03T01:55:21.251Z,100.00
2023-02-03T01:57:57.616Z,100.00
2023-02-03T02:00:24.773Z,100.00
2023-02-03T02:02:52.602Z,100.00
2023-02-03T02:05:35.558Z,100.00
2023-02-03T02:08:04.010Z,100.00
2023-02-03T02:10:32.076Z,100.00
2023-02-03T02:13:01.006Z,100.00
2023-02-03T02:15:53.510Z,100.00
2023-02-03T02:18:51.253Z,100.00
2023-02-03T02:21:36.562Z,100.00
2023-02-03T02:24:50.011Z,100.00
2023-02-03T02:27:32.703Z,100.00
2023-02-03T02:30:30.317Z,100.00
2023-02-03T02:33:08.381Z,100.00
2023-02-03T02:36:08.467Z,100.00
2023-02-03T02:38:45.512Z,100.00
2023-02-03T02:41:37.498Z,100.00
2023-02-03T02:44:16.376Z,100.00
2023-02-03T02:46:52.913Z,100.00
2023-02-03T02:49:25.275Z,100.00
2023-02-03T02:51:54.042Z,100.00
2023-02-03T02:54:24.346Z,100.00
2023-02-03T02:56:58.031Z,100.00
2023-02-03T02:59:24.594Z,100.00
2023-02-03T03:01:51.560Z,100.00
2023-02-03T03:04:23.525Z,100.00
2023-02-03T03:06:55.972Z,100.00
2023-02-03T03:09:27.533Z,100.00
2023-02-03T03:12:00.025Z,100.00
2023-02-03T03:14:31.434Z,100.00
2023-02-03T03:17:03.124Z,100.00
2023-02-03T03:19:47.170Z,100.00
2023-02-03T03:22:17.754Z,100.00
2023-02-03T03:24:49.005Z,100.00
2023-02-03T03:27:22.623Z,100.00
2023-02-03T03:29:54.398Z,100.00
2023-02-03T03:32:21.833Z,100.00
2023-02-03T03:34:49.219Z,100.00
2023-02-03T03:37:23.436Z,100.00
2023-02-03T03:40:00.282Z,100.00
2023-02-03T03:42:47.855Z,100.00
2023-02-03T03:45:35.055Z,100.00
2023-02-03T03:48:19.790Z,100.00
2023-02-03T03:50:58.694Z,100.00
2023-02-03T03:53:29.315Z,100.00
2023-02-03T03:55:57.549Z,100.00
2023-02-03T03:58:31.026Z,100.00
2023-02-03T04:01:04.005Z,100.00
2023-02-03T04:03:39.881Z,100.00
2023-02-03T04:06:06.741Z,100.00
2023-02-03T04:08:33.448Z,100.00
2023-02-03T04:10:59.937Z,100.00
2023-02-03T04:13:26.539Z,100.00
2023-02-03T04:15:53.160Z,100.00
2023-02-03T04:18:19.853Z,100.00
2023-02-03T04:20:46.403Z,100.00
2023-02-03T04:23:13.063Z,100.00
2023-02-03T04:25:39.629Z,100.00
2023-02-03T04:28:06.828Z,100.00
2023-02-03T04:30:33.618Z,100.00
2023-02-03T04:33:00.329Z,100.00
2023-02-03T04:35:27.086Z,100.00
2023-02-03T04:37:53.659Z,100.00
2023-02-03T04:40:20.461Z,100.00
2023-02-03T04:42:47.087Z,100.00
2023-02-03T04:45:13.698Z,100.00
2023-02-03T04:47:40.455Z,100.00
2023-02-03T04:50:07.421Z,100.00
2023-02-03T04:52:34.060Z,100.00
2023-02-03T04:55:00.652Z,100.00
2023-02-03T04:57:27.215Z,100.00
2023-02-03T04:59:53.816Z,100.00
2023-02-03T05:02:20.384Z,100.00
2023-02-03T05:04:46.921Z,100.00
2023-02-03T05:07:13.443Z,100.00
2023-02-03T05:09:40.016Z,100.00
2023-02-03T05:12:06.725Z,100.00
2023-02-03T05:14:33.383Z,100.00
2023-02-03T05:16:59.950Z,100.00
2023-02-03T05:19:26.609Z,100.00
2023-02-03T05:21:53.311Z,100.00
2023-02-03T05:24:19.874Z,100.00
2023-02-03T05:26:46.523Z,100.00
2023-02-03T05:29:13.134Z,100.00
2023-02-03T05:31:39.768Z,100.00
2023-02-03T05:34:06.384Z,100.00
2023-02-03T05:36:32.869Z,100.00
2023-02-03T05:38:59.562Z,100.00
2023-02-03T05:41:44.676Z,100.00
2023-02-03T05:44:11.376Z,100.00
2023-02-03T05:46:38.155Z,100.00
2023-02-03T05:49:04.811Z,100.00
2023-02-03T05:51:31.435Z,100.00
2023-02-03T05:53:58.040Z,100.00
2023-02-03T05:56:24.664Z,100.00
2023-02-03T05:58:54.129Z,100.00
2023-02-03T06:01:20.873Z,100.00
2023-02-03T06:03:48.434Z,100.00
2023-02-03T06:06:15.919Z,100.00
2023-02-03T06:08:43.011Z,100.00
2023-02-03T06:11:10.748Z,100.00
2023-02-03T06:13:37.591Z,100.00
2023-02-03T06:16:04.779Z,100.00
2023-02-03T06:18:31.722Z,100.00
2023-02-03T06:20:58.355Z,100.00
2023-02-03T06:23:25.114Z,100.00
2023-02-03T06:25:52.277Z,100.00
2023-02-03T06:28:19.470Z,100.00
2023-02-03T06:30:49.396Z,100.00
2023-02-03T06:33:15.954Z,100.00
2023-02-03T06:35:42.658Z,100.00
2023-02-03T06:38:09.353Z,100.00
2023-02-03T06:40:35.908Z,100.00
2023-02-03T06:43:02.502Z,100.00
2023-02-03T06:45:29.213Z,100.00
2023-02-03T06:47:56.008Z,100.00
2023-02-03T06:50:22.584Z,100.00
2023-02-03T06:52:50.324Z,100.00
2023-02-03T06:55:17.067Z,100.00
2023-02-03T06:57:45.524Z,100.00
2023-02-03T07:00:15.493Z,100.00
2023-02-03T07:02:43.686Z,100.00
2023-02-03T07:05:10.733Z,100.00
2023-02-03T07:07:39.742Z,100.00
2023-02-03T07:10:07.757Z,100.00
2023-02-03T07:12:34.533Z,100.00
2023-02-03T07:15:01.302Z,100.00
2023-02-03T07:17:27.989Z,100.00
2023-02-03T07:19:54.620Z,100.00
2023-02-03T07:22:21.323Z,100.00
2023-02-03T07:24:48.004Z,100.00
2023-02-03T07:27:14.607Z,100.00
2023-02-03T07:29:41.261Z,100.00
2023-02-03T07:32:08.050Z,100.00
2023-02-03T07:34:34.736Z,100.00
2023-02-03T07:37:01.385Z,100.00
2023-02-03T07:39:28.040Z,100.00
2023-02-03T07:41:54.785Z,100.00
2023-02-03T07:44:21.746Z,100.00
2023-02-03T07:46:48.534Z,100.00
2023-02-03T07:49:15.593Z,100.00
2023-02-03T07:51:42.402Z,100.00
2023-02-03T07:54:09.074Z,100.00
2023-02-03T07:56:35.971Z,100.00
2023-02-03T07:59:03.011Z,100.00
2023-02-03T08:01:31.343Z,100.00
2023-02-03T08:03:58.017Z,100.00
2023-02-03T08:06:25.745Z,100.00
2023-02-03T08:08:54.320Z,100.00
2023-02-03T08:11:20.976Z,100.00
2023-02-03T08:13:47.616Z,100.00
2023-02-03T08:16:14.281Z,100.00
2023-02-03T08:18:41.053Z,100.00
2023-02-03T08:21:07.746Z,100.00
2023-02-03T08:23:34.511Z,100.00
2023-02-03T08:26:01.123Z,100.00
2023-02-03T08:28:27.720Z,100.00
2023-02-03T08:30:54.542Z,100.00
2023-02-03T08:33:21.152Z,100.00
2023-02-03T08:35:49.631Z,100.00
2023-02-03T08:38:16.694Z,100.00
2023-02-03T08:40:43.500Z,100.00
2023-02-03T08:43:10.484Z,100.00
2023-02-03T08:45:37.275Z,100.00
2023-02-03T08:48:04.094Z,100.00
2023-02-03T08:50:31.059Z,100.00
2023-02-03T08:52:57.742Z,100.00
2023-02-03T08:55:24.672Z,100.00
2023-02-03T08:57:51.309Z,100.00
2023-02-03T09:00:18.413Z,100.00
2023-02-03T09:02:45.166Z,100.00
2023-02-03T09:05:11.911Z,100.00
2023-02-03T09:07:38.683Z,100.00
2023-02-03T09:10:05.702Z,100.00
2023-02-03T09:12:32.428Z,100.00
2023-02-03T09:14:59.209Z,100.00
2023-02-03T09:17:26.050Z,100.00
2023-02-03T09:19:52.697Z,100.00
2023-02-03T09:22:19.471Z,100.00
2023-02-03T09:24:46.147Z,100.00
2023-02-03T09:27:13.037Z,100.00
2023-02-03T09:29:39.780Z,100.00
2023-02-03T09:32:09.138Z,100.00
2023-02-03T09:34:36.358Z,100.00
2023-02-03T09:37:04.464Z,100.00
2023-02-03T09:39:31.427Z,100.00
2023-02-03T09:42:10.432Z,100.00
2023-02-03T09:44:47.085Z,100.00
2023-02-03T09:47:21.611Z,100.00
2023-02-03T09:49:55.688Z,100.00
2023-02-03T09:52:25.709Z,100.00
2023-02-03T09:55:06.026Z,100.00
2023-02-03T09:57:42.999Z,100.00
2023-02-03T10:00:26.622Z,100.00
2023-02-03T10:03:08.289Z,100.00
2023-02-03T10:05:57.642Z,100.00
2023-02-03T10:08:51.588Z,100.00
2023-02-03T10:11:27.109Z,100.00
2023-02-03T10:14:10.003Z,100.00
2023-02-03T10:16:57.291Z,100.00
2023-02-03T10:19:37.593Z,100.00
2023-02-03T10:22:05.888Z,100.00
2023-02-03T10:24:41.107Z,100.00
2023-02-03T10:27:18.837Z,100.00
2023-02-03T10:29:50.924Z,100.00
2023-02-03T10:32:17.626Z,100.00
2023-02-03T10:34:47.645Z,100.00
2023-02-03T10:37:30.251Z,100.00
2023-02-03T10:39:59.073Z,100.00
2023-02-03T10:42:26.181Z,100.00
2023-02-03T10:45:00.136Z,100.00
2023-02-03T10:47:36.833Z,100.00
2023-02-03T10:50:16.220Z,100.00
2023-02-03T10:52:42.756Z,100.00
2023-02-03T10:55:31.331Z,100.00
2023-02-03T10:57:58.718Z,100.00
2023-02-03T11:00:34.765Z,100.00
2023-02-03T11:03:18.555Z,100.00
2023-02-03T11:05:45.206Z,100.00
2023-02-03T11:08:16.424Z,100.00
2023-02-03T11:10:44.107Z,100.00
2023-02-03T11:13:17.488Z,100.00
2023-02-03T11:15:51.679Z,100.00
2023-02-03T11:18:37.223Z,100.00
2023-02-03T11:21:17.928Z,100.00
2023-02-03T11:23:54.545Z,100.00
2023-02-03T11:26:36.246Z,100.00
2023-02-03T11:29:06.650Z,100.00
2023-02-03T11:31:36.456Z,100.00
2023-02-03T11:34:21.228Z,100.00
2023-02-03T11:36:47.889Z,100.00
2023-02-03T11:39:29.911Z,100.00
2023-02-03T11:41:57.016Z,100.00
2023-02-03T11:44:29.292Z,100.00
2023-02-03T11:47:11.924Z,100.00
2023-02-03T11:50:14.583Z,100.00
2023-02-03T11:52:59.595Z,100.00
2023-02-03T11:55:46.826Z,100.00
2023-02-03T11:58:41.356Z,100.00
2023-02-03T12:01:43.572Z,100.00
2023-02-03T12:04:32.792Z,100.00
2023-02-03T12:07:11.925Z,100.00
2023-02-03T12:09:46.520Z,100.00
2023-02-03T12:12:31.155Z,100.00
2023-02-03T12:15:00.742Z,100.00
2023-02-03T12:17:36.738Z,100.00
2023-02-03T12:20:03.529Z,100.00
2023-02-03T12:22:45.215Z,100.00
2023-02-03T12:25:22.987Z,100.00
2023-02-03T12:28:31.346Z,100.00
2023-02-03T12:31:12.811Z,100.00
2023-02-03T12:33:48.926Z,100.00
2023-02-03T12:36:21.172Z,100.00
2023-02-03T12:38:56.360Z,100.00
2023-02-03T12:41:28.485Z,100.00
2023-02-03T12:44:02.169Z,100.00
2023-02-03T12:46:47.164Z,100.00
2023-02-03T12:49:32.996Z,100.00
2023-02-03T12:52:05.539Z,100.00
2023-02-03T12:54:49.935Z,100.00
2023-02-03T12:57:30.865Z,100.00
2023-02-03T13:00:07.363Z,100.00
2023-02-03T13:02:45.867Z,100.00
2023-02-03T13:05:44.285Z,100.00
2023-02-03T13:08:30.303Z,100.00
2023-02-03T13:11:24.829Z,100.00
2023-02-03T13:14:19.559Z,100.00
2023-02-03T13:16:53.464Z,100.00
2023-02-03T13:19:34.101Z,100.00
2023-02-03T13:22:00.547Z,100.00
2023-02-03T13:24:29.216Z,100.00
2023-02-03T13:27:04.832Z,100.00
2023-02-03T13:29:48.682Z,100.00
2023-02-03T13:32:32.264Z,100.00
2023-02-03T13:35:04.544Z,100.00
2023-02-03T13:37:40.267Z,100.00
2023-02-03T13:40:22.783Z,100.00
2023-02-03T13:43:00.805Z,100.00
2023-02-03T13:45:32.547Z,100.00
2023-02-03T13:48:29.810Z,100.00
2023-02-03T13:51:07.433Z,100.00
2023-02-03T13:53:39.202Z,100.00
2023-02-03T13:56:19.805Z,100.00
2023-02-03T13:59:06.660Z,100.00
2023-02-03T14:01:38.824Z,100.00
2023-02-03T14:04:09.234Z,100.00
2023-02-03T14:06:35.940Z,100.00
2023-02-03T14:09:19.401Z,100.00
2023-02-03T14:11:49.411Z,100.00
2023-02-03T14:14:15.993Z,100.00
2023-02-03T14:16:54.140Z,100.00
2023-02-03T14:19:30.754Z,100.00
2023-02-03T14:22:09.979Z,100.00
2023-02-03T14:24:40.571Z,100.00
2023-02-03T14:27:20.388Z,100.00
2023-02-03T14:30:12.509Z,100.00
2023-02-03T14:32:54.697Z,100.00
2023-02-03T14:35:30.251Z,100.00
2023-02-03T14:38:01.072Z,100.00
2023-02-03T14:40:46.505Z,100.00
2023-02-03T14:43:35.049Z,100.00
2023-02-03T14:46:46.413Z,100.00
2023-02-03T14:49:38.445Z,100.00
2023-02-03T14:52:22.641Z,100.00
2023-02-03T14:55:10.498Z,100.00
2023-02-03T14:57:39.954Z,100.00
2023-02-03T15:00:27.763Z,100.00
2023-02-03T15:03:06.653Z,100.00
2023-02-03T15:05:33.316Z,100.00
2023-02-03T15:08:02.292Z,100.00
2023-02-03T15:10:44.076Z,100.00
2023-02-03T15:13:28.982Z,100.00
2023-02-03T15:15:59.055Z,100.00
2023-02-03T15:18:32.796Z,100.00
2023-02-03T15:20:59.679Z,100.00
2023-02-03T15:23:36.909Z,100.00
2023-02-03T15:26:13.198Z,100.00
2023-02-03T15:28:39.998Z,100.00
2023-02-03T15:31:16.784Z,100.00
2023-02-03T15:33:45.094Z,100.00
2023-02-03T15:36:18.911Z,100.00
2023-02-03T15:38:55.973Z,100.00
2023-02-03T15:41:24.693Z,100.00
2023-02-03T15:43:58.954Z,100.00
2023-02-03T15:46:41.225Z,100.00
2023-02-03T15:49:21.977Z,100.00
2023-02-03T15:52:01.649Z,100.00
2023-02-03T15:54:46.197Z,100.00
2023-02-03T15:57:22.233Z,100.00
2023-02-03T15:59:57.503Z,100.00
2023-02-03T16:02:42.361Z,100.00
2023-02-03T16:05:24.491Z,100.00
2023-02-03T16:07:51.512Z,99.08
2023-02-03T16:10:32.345Z,98.03
2023-02-03T16:13:19.126Z,96.96
2023-02-03T16:15:59.847Z,96.96
2023-02-03T16:18:26.434Z,95.95
2023-02-03T16:20:53.173Z,96.33
2023-02-03T16:23:23.001Z,97.21
2023-02-03T16:26:14.669Z,98.45
2023-02-03T16:28:59.972Z,96.87
2023-02-03T16:31:45.481Z,97.40
2023-02-03T16:34:36.707Z,97.64
2023-02-03T16:37:31.890Z,96.27
2023-02-03T16:40:16.896Z,94.46
2023-02-03T16:43:02.288Z,95.47
2023-02-03T16:45:47.676Z,93.22
2023-02-03T16:48:32.922Z,93.25
2023-02-03T16:51:05.900Z,93.02
2023-02-03T16:53:33.772Z,94.03
2023-02-03T16:56:04.567Z,94.36
2023-02-03T16:58:31.625Z,95.83
2023-02-03T17:01:00.678Z,97.42
2023-02-03T17:03:28.820Z,98.27
2023-02-03T17:05:57.167Z,99.22
2023-02-03T17:08:26.236Z,100.00
2023-02-03T17:10:52.741Z,100.00
2023-02-03T17:13:20.766Z,100.00
2023-02-03T17:15:50.297Z,100.00
2023-02-03T17:18:17.437Z,100.00
2023-02-03T17:20:45.819Z,100.00
2023-02-03T17:23:13.892Z,100.00
2023-02-03T17:25:40.850Z,100.00
2023-02-03T17:28:09.142Z,100.00
2023-02-03T17:30:36.237Z,100.00
2023-02-03T17:33:13.770Z,100.00
2023-02-03T17:35:42.888Z,100.00
2023-02-03T17:38:10.374Z,100.00
2023-02-03T17:54:24.471Z,98.81
2023-02-03T17:56:51.277Z,99.23
2023-02-03T17:59:17.719Z,98.56
2023-02-03T18:01:44.339Z,94.43
2023-02-03T18:04:10.966Z,94.93
2023-02-03T18:06:38.042Z,92.63
2023-02-03T18:09:06.797Z,93.09
2023-02-03T18:11:35.614Z,92.65
2023-02-03T18:14:02.810Z,91.34
2023-02-03T18:16:33.152Z,91.92
2023-02-03T18:19:02.331Z,91.91
2023-02-03T18:21:29.186Z,92.48
2023-02-03T18:23:59.676Z,91.20
2023-02-03T18:26:28.969Z,91.00
2023-02-03T18:28:56.100Z,90.31
2023-02-03T18:31:22.774Z,91.17
2023-02-03T18:33:49.454Z,90.26
2023-02-03T18:36:16.877Z,89.39
2023-02-03T18:38:45.088Z,88.01
2023-02-03T18:41:18.069Z,88.41
2023-02-03T18:43:45.924Z,88.07
2023-02-03T18:46:33.670Z,88.29
2023-02-03T18:49:00.914Z,89.58
2023-02-03T18:51:27.867Z,89.19
2023-02-03T18:53:59.356Z,91.06
2023-02-03T18:56:28.529Z,91.42
2023-02-03T18:58:55.282Z,91.29
2023-02-03T19:01:24.228Z,91.16
2023-02-03T19:03:50.965Z,91.46
2023-02-03T19:06:18.739Z,90.45
2023-02-03T19:08:46.107Z,90.94
2023-02-03T19:11:14.025Z,91.35
2023-02-03T19:13:41.311Z,91.17
2023-02-03T19:16:09.059Z,90.03
2023-02-03T19:18:36.348Z,88.47
2023-02-03T19:21:03.175Z,88.79
2023-02-03T19:23:30.014Z,88.96
2023-02-03T19:25:56.692Z,89.03
2023-02-03T19:28:30.423Z,89.63
2023-02-03T19:31:08.056Z,88.92
2023-02-03T19:33:35.267Z,89.72
2023-02-03T19:36:01.879Z,89.78
2023-02-03T19:38:28.543Z,89.61
2023-02-03T19:40:55.224Z,88.65
2023-02-03T19:43:21.717Z,88.89
2023-02-03T19:45:48.173Z,89.36
2023-02-03T19:48:14.621Z,88.99
2023-02-03T19:50:46.003Z,89.74
2023-02-03T19:53:13.894Z,89.75
2023-02-03T19:55:42.581Z,89.12
2023-02-03T19:58:09.552Z,89.80
2023-02-03T20:00:36.091Z,89.63
2023-02-03T20:03:02.648Z,89.13
2023-02-03T20:05:30.034Z,89.17
2023-02-03T20:07:56.775Z,89.14
2023-02-03T20:10:26.415Z,89.07
2023-02-03T20:12:54.289Z,89.23
2023-02-03T20:15:21.860Z,88.74
2023-02-03T20:17:48.976Z,88.34
2023-02-03T20:20:19.688Z,88.14
2023-02-03T20:22:47.140Z,88.32
2023-02-03T20:25:13.773Z,89.31
2023-02-03T20:27:40.380Z,88.99
2023-02-03T20:30:07.844Z,88.29
2023-02-03T20:32:34.581Z,88.81
2023-02-03T20:35:01.554Z,89.07
2023-02-03T20:37:28.263Z,88.18
2023-02-03T20:39:54.926Z,86.75
2023-02-03T20:42:21.815Z,87.24
2023-02-03T20:44:48.332Z,86.02
2023-02-03T20:47:22.269Z,84.06
2023-02-03T20:49:49.764Z,86.36
2023-02-03T20:52:19.955Z,87.98
2023-02-03T20:54:47.000Z,88.63
2023-02-03T20:57:19.483Z,88.37
2023-02-03T20:59:46.417Z,88.14
2023-02-03T21:02:51.515Z,86.63
2023-02-03T21:05:27.653Z,86.71
2023-02-03T21:07:55.047Z,85.78
2023-02-03T21:10:25.130Z,86.31
2023-02-03T21:12:52.585Z,86.27
2023-02-03T21:15:23.442Z,86.25
2023-02-03T21:17:50.017Z,86.14
2023-02-03T21:20:30.955Z,86.03
2023-02-03T21:22:58.741Z,86.61
2023-02-03T21:25:28.800Z,85.99
2023-02-03T21:27:58.219Z,86.28
2023-02-03T21:30:32.727Z,86.45
2023-02-03T21:32:59.974Z,85.21
2023-02-03T21:35:32.193Z,85.62
2023-02-03T21:38:04.225Z,85.40
2023-02-03T21:40:35.079Z,85.76
2023-02-03T21:43:05.103Z,85.06
2023-02-03T21:45:36.639Z,85.74
2023-02-03T21:48:26.156Z,86.01
2023-02-03T21:50:54.434Z,86.38
2023-02-03T21:53:25.800Z,86.24
2023-02-03T21:55:52.822Z,87.47
2023-02-03T21:58:25.954Z,87.71
2023-02-03T22:00:55.927Z,87.98
2023-02-03T22:03:36.225Z,87.98
2023-02-03T22:06:27.063Z,89.21
2023-02-03T22:08:58.437Z,88.95
2023-02-03T22:11:28.050Z,89.15
2023-02-03T22:13:55.057Z,89.09
2023-02-03T22:16:22.248Z,89.59
2023-02-03T22:18:49.549Z,90.80
2023-02-03T22:21:16.695Z,92.17
2023-02-03T22:23:43.856Z,93.12
2023-02-03T22:26:11.543Z,93.91
2023-02-03T22:28:39.387Z,94.51
2023-02-03T22:31:07.700Z,95.22
2023-02-03T22:33:35.748Z,96.29
2023-02-03T22:36:03.559Z,97.22
2023-02-03T22:38:30.960Z,97.46
2023-02-03T22:40:57.616Z,97.73
2023-02-03T22:43:24.764Z,97.20
2023-02-03T22:45:52.039Z,97.42
2023-02-03T22:48:18.774Z,98.38
2023-02-03T22:50:45.378Z,98.54
2023-02-03T22:53:12.224Z,98.70
2023-02-03T22:55:39.677Z,99.07
2023-02-03T22:58:07.515Z,99.47
2023-02-03T23:00:34.723Z,100.00
2023-02-03T23:03:01.478Z,100.00
2023-02-03T23:05:28.197Z,100.00
2023-02-03T23:07:54.905Z,99.31
2023-02-03T23:10:24.944Z,99.46
2023-02-03T23:12:52.402Z,99.40
2023-02-03T23:15:19.359Z,99.77
2023-02-03T23:17:45.938Z,99.65
2023-02-03T23:20:14.761Z,100.00
2023-02-03T23:22:41.709Z,100.00
2023-02-03T23:25:08.781Z,100.00
2023-02-03T23:27:35.413Z,100.00
2023-02-03T23:30:02.203Z,100.00
2023-02-03T23:32:28.762Z,100.00
2023-02-03T23:35:13.745Z,100.00
2023-02-03T23:37:40.432Z,100.00
2023-02-03T23:40:07.472Z,100.00
2023-02-03T23:42:34.071Z,100.00
2023-02-03T23:45:00.581Z,99.23
2023-02-03T23:47:27.269Z,100.00
2023-02-03T23:49:53.863Z,99.09
2023-02-03T23:52:20.423Z,98.46
2023-02-03T23:54:46.885Z,97.87
2023-02-03T23:57:13.372Z,97.09
2023-02-03T23:59:40.022Z,98.05
